createdAt,value
2023-03-29T00:00:53.198Z,1171.00
2023-03-29T00:04:53.342Z,1170.00
2023-03-29T00:08:53.547Z,1154.00
2023-03-29T00:12:53.670Z,1162.00
2023-03-29T00:16:54.210Z,1139.00
2023-03-29T00:20:54.193Z,1144.00
2023-03-29T00:24:54.247Z,1135.00
2023-03-29T00:28:54.335Z,1124.00
2023-03-29T00:32:54.741Z,1115.00
2023-03-29T00:36:54.749Z,1108.00
2023-03-29T00:40:54.813Z,1099.00
2023-03-29T00:44:55.222Z,1110.00
2023-03-29T00:48:55.170Z,1111.00
2023-03-29T00:52:55.687Z,1074.00
2023-03-29T00:56:55.575Z,1080.00
2023-03-29T01:00:55.708Z,1078.00
2023-03-29T01:04:56.217Z,1048.00
2023-03-29T01:08:56.083Z,1046.00
2023-03-29T01:12:56.354Z,1063.00
2023-03-29T01:16:56.733Z,1029.00
2023-03-29T01:20:56.739Z,1040.00
2023-03-29T01:24:57.216Z,1027.00
2023-03-29T01:28:57.233Z,1028.00
2023-03-29T01:32:57.770Z,1007.00
2023-03-29T01:36:57.738Z,1014.00
2023-03-29T01:40:57.655Z,1018.00
2023-03-29T01:44:58.230Z,1012.00
2023-03-29T01:48:57.993Z,1005.00
2023-03-29T01:52:58.252Z,995.00
2023-03-29T01:56:58.382Z,978.00
2023-03-29T02:00:58.868Z,971.00
2023-03-29T02:04:59.244Z,967.00
2023-03-29T02:08:58.976Z,958.00
2023-03-29T02:12:59.140Z,965.00
2023-03-29T02:16:59.325Z,958.00
2023-03-29T02:20:59.910Z,960.00
2023-03-29T02:24:59.742Z,970.00
2023-03-29T02:29:00.251Z,956.00
2023-03-29T02:33:00.288Z,963.00
2023-03-29T02:37:00.320Z,933.00
2023-03-29T02:41:00.906Z,948.00
2023-03-29T02:45:00.749Z,943.00
2023-03-29T02:49:01.238Z,930.00
2023-03-29T02:53:01.245Z,924.00
2023-03-29T02:57:01.426Z,916.00
2023-03-29T03:01:01.897Z,909.00
2023-03-29T03:05:02.277Z,911.00
2023-03-29T03:09:02.317Z,915.00
2023-03-29T03:13:02.184Z,928.00
2023-03-29T03:17:04.701Z,896.00
2023-03-29T03:21:02.916Z,898.00
2023-03-29T03:25:02.372Z,900.00
2023-03-29T03:29:02.274Z,901.00
2023-03-29T03:33:02.264Z,883.00
2023-03-29T03:37:02.786Z,892.00
2023-03-29T03:41:02.547Z,877.00
2023-03-29T03:45:02.283Z,878.00
2023-03-29T03:49:02.758Z,871.00
2023-03-29T03:53:02.063Z,867.00
2023-03-29T03:57:02.289Z,856.00
2023-03-29T04:01:02.901Z,859.00
2023-03-29T04:05:03.310Z,858.00
2023-03-29T04:09:02.798Z,870.00
2023-03-29T04:13:02.915Z,847.00
2023-03-29T04:17:03.295Z,864.00
2023-03-29T04:21:04.080Z,846.00
2023-03-29T04:25:03.806Z,837.00
2023-03-29T04:29:03.797Z,842.00
2023-03-29T04:33:03.976Z,854.00
2023-03-29T04:37:04.315Z,830.00
2023-03-29T04:41:04.452Z,821.00
2023-03-29T04:45:05.412Z,819.00
2023-03-29T04:49:04.711Z,822.00
2023-03-29T04:53:04.913Z,813.00
2023-03-29T04:57:05.375Z,799.00
2023-03-29T05:01:05.828Z,798.00
2023-03-29T05:05:05.324Z,806.00
2023-03-29T05:09:05.246Z,789.00
2023-03-29T05:13:12.352Z,776.00
2023-03-29T05:17:05.375Z,784.00
2023-03-29T05:21:05.411Z,784.00
2023-03-29T05:25:05.366Z,781.00
2023-03-29T05:29:05.089Z,779.00
2023-03-29T05:33:05.484Z,772.00
2023-03-29T05:37:05.357Z,783.00
2023-03-29T05:41:04.984Z,780.00
2023-03-29T05:45:05.362Z,770.00
2023-03-29T05:49:04.908Z,783.00
2023-03-29T05:53:05.812Z,802.00
2023-03-29T05:57:05.405Z,873.00
2023-03-29T06:01:04.997Z,953.00
2023-03-29T06:05:04.839Z,1000.00
2023-03-29T06:09:04.732Z,1091.00
2023-03-29T06:13:04.903Z,1105.00
2023-03-29T06:17:04.914Z,1213.00
2023-03-29T06:21:05.100Z,1298.00
2023-03-29T06:25:04.621Z,1408.00
2023-03-29T06:29:04.909Z,1480.00
2023-03-29T06:33:05.009Z,1489.00
2023-03-29T06:37:04.906Z,1548.00
2023-03-29T06:41:05.025Z,1583.00
2023-03-29T06:45:04.499Z,1628.00
2023-03-29T06:49:04.932Z,1705.00
2023-03-29T06:53:04.915Z,1710.00
2023-03-29T06:57:04.951Z,1709.00
2023-03-29T07:01:04.844Z,773.00
2023-03-29T07:05:04.391Z,564.00
2023-03-29T07:09:04.315Z,618.00
2023-03-29T07:13:04.474Z,624.00
2023-03-29T07:17:04.417Z,627.00
2023-03-29T07:21:04.377Z,616.00
2023-03-29T07:25:04.432Z,591.00
2023-03-29T07:29:11.884Z,585.00
2023-03-29T07:33:04.558Z,597.00
2023-03-29T07:37:04.901Z,618.00
2023-03-29T07:41:04.580Z,645.00
2023-03-29T07:45:04.933Z,718.00
2023-03-29T07:49:04.406Z,834.00
2023-03-29T07:53:04.405Z,974.00
2023-03-29T07:57:04.343Z,1027.00
2023-03-29T08:01:04.674Z,1100.00
2023-03-29T08:05:04.438Z,1170.00
2023-03-29T08:09:04.405Z,1243.00
2023-03-29T08:13:04.418Z,1308.00
2023-03-29T08:17:04.190Z,1371.00
2023-03-29T08:21:04.803Z,1417.00
2023-03-29T08:25:04.432Z,1478.00
2023-03-29T08:29:04.412Z,1532.00
2023-03-29T08:33:04.420Z,1583.00
2023-03-29T08:37:03.928Z,1654.00
2023-03-29T08:41:04.157Z,1702.00
2023-03-29T08:45:03.913Z,1747.00
2023-03-29T08:49:03.928Z,1615.00
2023-03-29T08:53:03.943Z,1574.00
2023-03-29T08:57:03.864Z,1369.00
2023-03-29T09:01:04.098Z,1309.00
2023-03-29T09:05:04.043Z,1155.00
2023-03-29T09:09:03.934Z,1130.00
2023-03-29T09:13:03.845Z,1028.00
2023-03-29T09:17:03.947Z,952.00
2023-03-29T09:21:04.096Z,903.00
2023-03-29T09:25:04.016Z,817.00
2023-03-29T09:29:04.467Z,891.00
2023-03-29T09:33:04.175Z,770.00
2023-03-29T09:37:04.457Z,836.00
2023-03-29T09:41:04.834Z,665.00
2023-03-29T09:45:04.449Z,774.00
2023-03-29T09:49:04.429Z,686.00
2023-03-29T09:53:04.226Z,713.00
2023-03-29T09:57:04.320Z,704.00
2023-03-29T10:01:04.412Z,746.00
2023-03-29T10:05:04.132Z,658.00
2023-03-29T10:09:04.123Z,681.00
2023-03-29T10:13:04.297Z,678.00
2023-03-29T10:17:04.385Z,668.00
2023-03-29T10:21:04.700Z,681.00
2023-03-29T10:25:04.661Z,681.00
2023-03-29T10:29:04.694Z,702.00
2023-03-29T10:33:04.888Z,709.00
2023-03-29T10:37:04.841Z,725.00
2023-03-29T10:41:05.043Z,718.00
2023-03-29T10:45:05.522Z,736.00
2023-03-29T10:49:05.031Z,739.00
2023-03-29T10:53:05.063Z,732.00
2023-03-29T10:57:05.498Z,731.00
2023-03-29T11:01:05.864Z,731.00
2023-03-29T11:05:05.513Z,732.00
2023-03-29T11:09:05.145Z,745.00
2023-03-29T11:13:05.160Z,757.00
2023-03-29T11:17:05.519Z,762.00
2023-03-29T11:21:10.124Z,755.00
2023-03-29T11:25:06.161Z,747.00
2023-03-29T11:29:05.161Z,748.00
2023-03-29T11:33:05.210Z,744.00
2023-03-29T11:37:05.030Z,744.00
2023-03-29T11:41:05.193Z,748.00
2023-03-29T11:45:05.165Z,733.00
2023-03-29T11:49:05.116Z,718.00
2023-03-29T11:53:05.191Z,730.00
2023-03-29T11:57:05.167Z,743.00
2023-03-29T12:01:05.187Z,725.00
2023-03-29T12:05:05.179Z,689.00
2023-03-29T12:09:05.279Z,700.00
2023-03-29T12:13:05.513Z,658.00
2023-03-29T12:17:05.641Z,692.00
2023-03-29T12:21:05.712Z,686.00
2023-03-29T12:25:05.599Z,737.00
2023-03-29T12:29:06.025Z,748.00
2023-03-29T12:33:05.754Z,769.00
2023-03-29T12:37:05.738Z,752.00
2023-03-29T12:41:05.729Z,728.00
2023-03-29T12:45:05.707Z,711.00
2023-03-29T12:49:05.736Z,704.00
2023-03-29T12:53:05.768Z,693.00
2023-03-29T12:57:05.845Z,679.00
2023-03-29T13:01:13.036Z,662.00
2023-03-29T13:05:05.932Z,664.00
2023-03-29T13:09:05.897Z,662.00
2023-03-29T13:13:05.798Z,659.00
2023-03-29T13:17:17.712Z,660.00
2023-03-29T13:21:06.738Z,661.00
2023-03-29T13:25:05.732Z,652.00
2023-03-29T13:29:05.786Z,651.00
2023-03-29T13:33:05.921Z,644.00
2023-03-29T13:37:06.081Z,641.00
2023-03-29T13:41:06.214Z,644.00
2023-03-29T13:45:06.557Z,642.00
2023-03-29T13:49:06.549Z,644.00
2023-03-29T13:53:06.738Z,644.00
2023-03-29T13:57:06.912Z,643.00
2023-03-29T14:01:07.027Z,643.00
2023-03-29T14:05:07.237Z,638.00
2023-03-29T14:09:07.367Z,632.00
2023-03-29T14:13:07.593Z,638.00
2023-03-29T14:17:07.818Z,631.00
2023-03-29T14:21:08.007Z,636.00
2023-03-29T14:25:08.655Z,621.00
2023-03-29T14:29:08.580Z,619.00
2023-03-29T14:33:08.584Z,623.00
2023-03-29T14:37:08.816Z,624.00
2023-03-29T14:41:09.095Z,621.00
2023-03-29T14:45:09.151Z,617.00
2023-03-29T14:49:09.586Z,616.00
2023-03-29T14:53:09.582Z,608.00
2023-03-29T14:57:09.124Z,608.00
2023-03-29T15:01:09.090Z,606.00
2023-03-29T15:05:09.105Z,602.00
2023-03-29T15:09:08.952Z,600.00
2023-03-29T15:13:09.097Z,599.00
2023-03-29T15:17:08.904Z,597.00
2023-03-29T15:21:09.118Z,593.00
2023-03-29T15:25:09.259Z,598.00
2023-03-29T15:29:09.589Z,594.00
2023-03-29T15:33:10.180Z,592.00
2023-03-29T15:37:09.818Z,585.00
2023-03-29T15:41:10.098Z,585.00
2023-03-29T15:45:10.105Z,585.00
2023-03-29T15:49:10.273Z,579.00
2023-03-29T15:53:15.454Z,582.00
2023-03-29T15:57:11.443Z,580.00
2023-03-29T16:01:10.608Z,576.00
2023-03-29T16:05:10.599Z,580.00
2023-03-29T16:09:10.600Z,572.00
2023-03-29T16:13:10.441Z,575.00
2023-03-29T16:17:10.380Z,575.00
2023-03-29T16:21:12.231Z,569.00
2023-03-29T16:25:10.378Z,574.00
2023-03-29T16:29:10.649Z,570.00
2023-03-29T16:33:10.416Z,570.00
2023-03-29T16:37:10.404Z,567.00
2023-03-29T16:41:10.433Z,569.00
2023-03-29T16:45:10.727Z,566.00
2023-03-29T16:49:10.544Z,580.00
2023-03-29T16:53:10.508Z,593.00
2023-03-29T16:57:10.680Z,617.00
2023-03-29T17:01:10.469Z,621.00
2023-03-29T17:05:10.642Z,644.00
2023-03-29T17:09:10.389Z,665.00
2023-03-29T17:13:10.338Z,712.00
2023-03-29T17:17:10.641Z,762.00
2023-03-29T17:21:10.284Z,796.00
2023-03-29T17:25:10.659Z,834.00
2023-03-29T17:29:10.194Z,865.00
2023-03-29T17:33:10.635Z,877.00
2023-03-29T17:37:10.108Z,920.00
2023-03-29T17:41:10.076Z,941.00
2023-03-29T17:45:10.156Z,968.00
2023-03-29T17:49:09.999Z,977.00
2023-03-29T17:53:10.164Z,986.00
2023-03-29T17:57:09.979Z,1029.00
2023-03-29T18:01:09.963Z,1029.00
2023-03-29T18:05:09.858Z,1042.00
2023-03-29T18:09:09.903Z,1061.00
2023-03-29T18:13:10.158Z,1086.00
2023-03-29T18:17:10.201Z,1081.00
2023-03-29T18:21:10.158Z,1049.00
2023-03-29T18:25:11.273Z,1014.00
2023-03-29T18:29:10.180Z,2118.00
2023-03-29T18:33:10.697Z,1580.00
2023-03-29T18:37:10.687Z,1861.00
2023-03-29T18:41:10.699Z,1968.00
2023-03-29T18:45:10.674Z,1860.00
2023-03-29T18:49:10.520Z,1854.00
2023-03-29T18:53:10.698Z,1888.00
2023-03-29T18:57:10.461Z,1912.00
2023-03-29T19:01:10.472Z,1910.00
2023-03-29T19:05:10.709Z,1926.00
2023-03-29T19:09:10.352Z,1925.00
2023-03-29T19:13:10.709Z,1961.00
2023-03-29T19:17:10.258Z,1914.00
2023-03-29T19:21:10.705Z,1894.00
2023-03-29T19:25:10.236Z,1886.00
2023-03-29T19:29:10.444Z,1813.00
2023-03-29T19:33:10.760Z,1809.00
2023-03-29T19:37:10.686Z,1838.00
2023-03-29T19:41:10.688Z,1830.00
2023-03-29T19:45:10.267Z,1731.00
2023-03-29T19:49:10.254Z,1717.00
2023-03-29T19:53:10.703Z,1683.00
2023-03-29T19:57:10.174Z,1899.00
2023-03-29T20:01:10.141Z,1808.00
2023-03-29T20:05:10.116Z,1810.00
2023-03-29T20:09:10.231Z,1868.00
2023-03-29T20:13:10.214Z,1788.00
2023-03-29T20:17:09.984Z,1703.00
2023-03-29T20:21:10.295Z,1692.00
2023-03-29T20:25:09.903Z,1646.00
2023-03-29T20:29:09.885Z,1612.00
2023-03-29T20:33:10.212Z,1583.00
2023-03-29T20:37:10.251Z,1562.00
2023-03-29T20:41:10.214Z,1544.00
2023-03-29T20:45:09.754Z,1530.00
2023-03-29T20:49:10.206Z,1493.00
2023-03-29T20:53:10.197Z,1472.00
2023-03-29T20:57:10.282Z,1452.00
2023-03-29T21:01:10.138Z,1429.00
2023-03-29T21:05:10.236Z,1419.00
2023-03-29T21:09:10.325Z,1420.00
2023-03-29T21:13:10.760Z,1389.00
2023-03-29T21:17:10.526Z,1372.00
2023-03-29T21:21:10.670Z,1360.00
2023-03-29T21:25:11.243Z,1338.00
2023-03-29T21:29:11.043Z,1321.00
2023-03-29T21:33:11.331Z,1303.00
2023-03-29T21:37:13.382Z,1288.00
2023-03-29T21:41:11.256Z,1274.00
2023-03-29T21:45:11.227Z,1263.00
2023-03-29T21:49:11.180Z,1238.00
2023-03-29T21:53:11.280Z,1236.00
2023-03-29T21:57:11.306Z,1208.00
2023-03-29T22:01:11.160Z,1193.00
2023-03-29T22:05:11.046Z,1183.00
2023-03-29T22:09:11.270Z,1169.00
2023-03-29T22:13:11.267Z,1145.00
2023-03-29T22:17:11.755Z,1145.00
2023-03-29T22:21:11.381Z,1125.00
2023-03-29T22:25:11.739Z,1129.00
2023-03-29T22:29:11.795Z,1105.00
2023-03-29T22:33:11.290Z,1086.00
2023-03-29T22:37:11.253Z,1070.00
2023-03-29T22:41:11.252Z,1070.00
2023-03-29T22:45:11.293Z,1050.00
2023-03-29T22:49:11.252Z,1030.00
2023-03-29T22:53:11.142Z,1015.00
2023-03-29T22:57:11.184Z,1014.00
2023-03-29T23:01:11.351Z,994.00
2023-03-29T23:05:11.261Z,985.00
2023-03-29T23:09:11.271Z,967.00
2023-03-29T23:13:11.347Z,970.00
2023-03-29T23:17:11.003Z,957.00
2023-03-29T23:21:11.294Z,953.00
2023-03-29T23:25:11.271Z,937.00
2023-03-29T23:29:10.895Z,932.00
2023-03-29T23:33:11.309Z,913.00
2023-03-29T23:37:10.799Z,921.00
2023-03-29T23:41:11.289Z,894.00
2023-03-29T23:45:10.782Z,882.00
2023-03-29T23:49:10.790Z,884.00
2023-03-29T23:53:10.652Z,859.00
2023-03-29T23:57:10.744Z,860.00
